sensor_id;sensor_type;location;lat;lon;timestamp;P1;durP1;ratioP1;P2;durP2;ratioP2
61869;SDS011;47810;42.264;23.826;2022-07-17T00:00:53;7.47;;;6.57;;
61869;SDS011;47810;42.264;23.826;2022-07-17T00:03:20;11.32;;;6.70;;
61869;SDS011;47810;42.264;23.826;2022-07-17T00:05:52;8.38;;;6.60;;
61869;SDS011;47810;42.264;23.826;2022-07-17T00:08:17;9.80;;;6.22;;
61869;SDS011;47810;42.264;23.826;2022-07-17T00:10:44;9.77;;;7.00;;
61869;SDS011;47810;42.264;23.826;2022-07-17T00:16:01;9.60;;;7.00;;
61869;SDS011;47810;42.264;23.826;2022-07-17T00:18:27;10.85;;;7.05;;
61869;SDS011;47810;42.264;23.826;2022-07-17T00:21:16;11.80;;;6.63;;
61869;SDS011;47810;42.264;23.826;2022-07-17T00:23:56;10.43;;;6.97;;
61869;SDS011;47810;42.264;23.826;2022-07-17T00:26:25;11.43;;;6.70;;
61869;SDS011;47810;42.264;23.826;2022-07-17T00:28:51;9.95;;;6.45;;
61869;SDS011;47810;42.264;23.826;2022-07-17T00:31:16;9.18;;;6.57;;
61869;SDS011;47810;42.264;23.826;2022-07-17T00:33:43;11.38;;;6.55;;
61869;SDS011;47810;42.264;23.826;2022-07-17T00:38:42;8.98;;;7.13;;
61869;SDS011;47810;42.264;23.826;2022-07-17T00:41:09;7.72;;;6.78;;
61869;SDS011;47810;42.264;23.826;2022-07-17T00:43:40;11.07;;;6.72;;
61869;SDS011;47810;42.264;23.826;2022-07-17T00:46:13;14.43;;;6.75;;
61869;SDS011;47810;42.264;23.826;2022-07-17T00:48:41;9.48;;;6.75;;
61869;SDS011;47810;42.264;23.826;2022-07-17T00:51:10;9.00;;;6.38;;
61869;SDS011;47810;42.264;23.826;2022-07-17T00:53:39;12.63;;;6.88;;
61869;SDS011;47810;42.264;23.826;2022-07-17T00:56:22;9.57;;;6.70;;
61869;SDS011;47810;42.264;23.826;2022-07-17T00:58:49;9.30;;;7.18;;
61869;SDS011;47810;42.264;23.826;2022-07-17T01:01:20;8.88;;;6.55;;
61869;SDS011;47810;42.264;23.826;2022-07-17T01:03:47;8.38;;;6.18;;
61869;SDS011;47810;42.264;23.826;2022-07-17T01:06:13;7.30;;;6.30;;
61869;SDS011;47810;42.264;23.826;2022-07-17T01:08:39;9.05;;;6.93;;
61869;SDS011;47810;42.264;23.826;2022-07-17T01:11:08;10.50;;;6.43;;
61869;SDS011;47810;42.264;23.826;2022-07-17T01:13:35;8.95;;;6.30;;
61869;SDS011;47810;42.264;23.826;2022-07-17T01:16:02;7.85;;;6.40;;
61869;SDS011;47810;42.264;23.826;2022-07-17T01:18:28;8.25;;;6.57;;
61869;SDS011;47810;42.264;23.826;2022-07-17T01:21:02;9.18;;;6.85;;
61869;SDS011;47810;42.264;23.826;2022-07-17T01:23:29;12.02;;;6.78;;
61869;SDS011;47810;42.264;23.826;2022-07-17T01:25:56;8.68;;;6.43;;
61869;SDS011;47810;42.264;23.826;2022-07-17T01:28:23;9.35;;;6.50;;
61869;SDS011;47810;42.264;23.826;2022-07-17T01:30:51;8.93;;;6.25;;
61869;SDS011;47810;42.264;23.826;2022-07-17T01:33:23;8.35;;;6.25;;
61869;SDS011;47810;42.264;23.826;2022-07-17T01:35:50;7.80;;;5.82;;
61869;SDS011;47810;42.264;23.826;2022-07-17T01:38:21;7.95;;;6.45;;
61869;SDS011;47810;42.264;23.826;2022-07-17T01:43:19;9.05;;;6.07;;
61869;SDS011;47810;42.264;23.826;2022-07-17T01:45:53;7.57;;;6.20;;
61869;SDS011;47810;42.264;23.826;2022-07-17T01:48:26;7.95;;;6.30;;
61869;SDS011;47810;42.264;23.826;2022-07-17T01:50:53;8.55;;;6.50;;
61869;SDS011;47810;42.264;23.826;2022-07-17T01:53:19;7.95;;;5.82;;
61869;SDS011;47810;42.264;23.826;2022-07-17T01:55:46;7.55;;;6.10;;
61869;SDS011;47810;42.264;23.826;2022-07-17T02:00:49;16.63;;;6.88;;
61869;SDS011;47810;42.264;23.826;2022-07-17T02:03:17;7.45;;;5.90;;
61869;SDS011;47810;42.264;23.826;2022-07-17T02:05:46;9.65;;;5.88;;
61869;SDS011;47810;42.264;23.826;2022-07-17T02:08:12;8.18;;;5.90;;
61869;SDS011;47810;42.264;23.826;2022-07-17T02:10:42;10.27;;;5.90;;
61869;SDS011;47810;42.264;23.826;2022-07-17T02:13:13;7.50;;;5.90;;
61869;SDS011;47810;42.264;23.826;2022-07-17T02:15:43;10.82;;;6.00;;
61869;SDS011;47810;42.264;23.826;2022-07-17T02:18:10;9.02;;;5.95;;
61869;SDS011;47810;42.264;23.826;2022-07-17T02:20:40;9.18;;;6.13;;
61869;SDS011;47810;42.264;23.826;2022-07-17T02:23:16;8.35;;;5.38;;
61869;SDS011;47810;42.264;23.826;2022-07-17T02:25:47;10.27;;;5.43;;
61869;SDS011;47810;42.264;23.826;2022-07-17T02:28:18;8.63;;;5.63;;
61869;SDS011;47810;42.264;23.826;2022-07-17T02:30:45;9.77;;;5.68;;
61869;SDS011;47810;42.264;23.826;2022-07-17T02:33:25;7.78;;;5.80;;
61869;SDS011;47810;42.264;23.826;2022-07-17T02:35:52;9.40;;;6.70;;
61869;SDS011;47810;42.264;23.826;2022-07-17T02:38:18;10.25;;;6.28;;
61869;SDS011;47810;42.264;23.826;2022-07-17T02:40:45;7.50;;;5.90;;
61869;SDS011;47810;42.264;23.826;2022-07-17T02:43:11;9.98;;;5.80;;
61869;SDS011;47810;42.264;23.826;2022-07-17T02:45:39;11.75;;;5.80;;
61869;SDS011;47810;42.264;23.826;2022-07-17T02:48:13;9.15;;;5.70;;
61869;SDS011;47810;42.264;23.826;2022-07-17T02:50:41;7.85;;;5.55;;
61869;SDS011;47810;42.264;23.826;2022-07-17T02:53:20;7.95;;;5.60;;
61869;SDS011;47810;42.264;23.826;2022-07-17T02:55:48;10.38;;;5.68;;
61869;SDS011;47810;42.264;23.826;2022-07-17T02:58:40;7.40;;;5.40;;
61869;SDS011;47810;42.264;23.826;2022-07-17T03:01:07;15.60;;;6.40;;
61869;SDS011;47810;42.264;23.826;2022-07-17T03:03:34;7.22;;;5.45;;
61869;SDS011;47810;42.264;23.826;2022-07-17T03:06:00;8.70;;;5.20;;
61869;SDS011;47810;42.264;23.826;2022-07-17T03:08:27;9.45;;;5.80;;
61869;SDS011;47810;42.264;23.826;2022-07-17T03:10:55;10.82;;;5.63;;
61869;SDS011;47810;42.264;23.826;2022-07-17T03:13:24;8.00;;;5.57;;
61869;SDS011;47810;42.264;23.826;2022-07-17T03:15:50;7.63;;;4.85;;
61869;SDS011;47810;42.264;23.826;2022-07-17T03:18:25;10.63;;;5.40;;
61869;SDS011;47810;42.264;23.826;2022-07-17T03:20:53;9.43;;;6.00;;
61869;SDS011;47810;42.264;23.826;2022-07-17T03:23:28;7.30;;;5.20;;
61869;SDS011;47810;42.264;23.826;2022-07-17T03:25:56;10.27;;;5.82;;
61869;SDS011;47810;42.264;23.826;2022-07-17T03:33:35;8.90;;;5.40;;
61869;SDS011;47810;42.264;23.826;2022-07-17T03:36:15;7.72;;;5.40;;
61869;SDS011;47810;42.264;23.826;2022-07-17T03:38:42;9.83;;;5.33;;
61869;SDS011;47810;42.264;23.826;2022-07-17T03:43:46;7.97;;;5.93;;
61869;SDS011;47810;42.264;23.826;2022-07-17T03:46:22;11.27;;;5.80;;
61869;SDS011;47810;42.264;23.826;2022-07-17T03:48:47;9.45;;;5.43;;
61869;SDS011;47810;42.264;23.826;2022-07-17T03:51:29;9.32;;;5.80;;
61869;SDS011;47810;42.264;23.826;2022-07-17T03:54:23;7.85;;;5.85;;
61869;SDS011;47810;42.264;23.826;2022-07-17T03:56:52;9.55;;;6.25;;
61869;SDS011;47810;42.264;23.826;2022-07-17T03:59:25;26.58;;;6.85;;
61869;SDS011;47810;42.264;23.826;2022-07-17T04:01:52;13.18;;;6.43;;
61869;SDS011;47810;42.264;23.826;2022-07-17T04:04:26;13.98;;;8.07;;
61869;SDS011;47810;42.264;23.826;2022-07-17T04:06:56;12.40;;;5.90;;
61869;SDS011;47810;42.264;23.826;2022-07-17T04:09:56;8.60;;;6.18;;
61869;SDS011;47810;42.264;23.826;2022-07-17T04:17:47;14.88;;;6.75;;
61869;SDS011;47810;42.264;23.826;2022-07-17T04:20:22;14.85;;;6.10;;
61869;SDS011;47810;42.264;23.826;2022-07-17T04:22:49;40.95;;;6.97;;
61869;SDS011;47810;42.264;23.826;2022-07-17T04:25:16;31.63;;;7.32;;
61869;SDS011;47810;42.264;23.826;2022-07-17T04:27:56;268.40;;;18.08;;
61869;SDS011;47810;42.264;23.826;2022-07-17T04:30:26;12.98;;;6.70;;
61869;SDS011;47810;42.264;23.826;2022-07-17T04:33:01;38.38;;;7.10;;
61869;SDS011;47810;42.264;23.826;2022-07-17T04:35:30;11.27;;;6.10;;
61869;SDS011;47810;42.264;23.826;2022-07-17T04:38:07;39.10;;;8.23;;
61869;SDS011;47810;42.264;23.826;2022-07-17T04:40:43;13.02;;;6.13;;
61869;SDS011;47810;42.264;23.826;2022-07-17T04:45:43;22.73;;;6.68;;
61869;SDS011;47810;42.264;23.826;2022-07-17T04:48:12;8.95;;;5.80;;
61869;SDS011;47810;42.264;23.826;2022-07-17T04:50:45;7.63;;;5.32;;
61869;SDS011;47810;42.264;23.826;2022-07-17T04:53:18;11.65;;;6.03;;
61869;SDS011;47810;42.264;23.826;2022-07-17T04:55:44;10.77;;;5.97;;
61869;SDS011;47810;42.264;23.826;2022-07-17T04:58:22;7.70;;;5.65;;
61869;SDS011;47810;42.264;23.826;2022-07-17T05:00:48;8.45;;;6.00;;
61869;SDS011;47810;42.264;23.826;2022-07-17T05:03:34;9.20;;;6.40;;
61869;SDS011;47810;42.264;23.826;2022-07-17T05:06:06;8.80;;;6.30;;
61869;SDS011;47810;42.264;23.826;2022-07-17T05:08:39;14.80;;;6.55;;
61869;SDS011;47810;42.264;23.826;2022-07-17T05:11:04;9.55;;;6.40;;
61869;SDS011;47810;42.264;23.826;2022-07-17T05:13:31;7.97;;;6.40;;
61869;SDS011;47810;42.264;23.826;2022-07-17T05:16:03;10.60;;;6.70;;
61869;SDS011;47810;42.264;23.826;2022-07-17T05:18:36;8.65;;;6.25;;
61869;SDS011;47810;42.264;23.826;2022-07-17T05:21:06;14.65;;;6.50;;
61869;SDS011;47810;42.264;23.826;2022-07-17T05:23:33;12.25;;;6.63;;
61869;SDS011;47810;42.264;23.826;2022-07-17T05:31:38;9.32;;;4.68;;
61869;SDS011;47810;42.264;23.826;2022-07-17T05:37:08;8.40;;;4.10;;
61869;SDS011;47810;42.264;23.826;2022-07-17T05:45:28;8.20;;;3.67;;
61869;SDS011;47810;42.264;23.826;2022-07-17T05:52:19;4.40;;;3.25;;
61869;SDS011;47810;42.264;23.826;2022-07-17T06:00:50;6.07;;;3.47;;
61869;SDS011;47810;42.264;23.826;2022-07-17T06:08:43;8.20;;;3.60;;
61869;SDS011;47810;42.264;23.826;2022-07-17T06:11:08;6.10;;;3.33;;
61869;SDS011;47810;42.264;23.826;2022-07-17T06:13:39;7.18;;;3.72;;
61869;SDS011;47810;42.264;23.826;2022-07-17T06:16:08;5.68;;;3.60;;
61869;SDS011;47810;42.264;23.826;2022-07-17T06:18:52;9.63;;;3.90;;
61869;SDS011;47810;42.264;23.826;2022-07-17T06:21:26;7.43;;;3.60;;
61869;SDS011;47810;42.264;23.826;2022-07-17T06:24:00;4.78;;;3.30;;
61869;SDS011;47810;42.264;23.826;2022-07-17T06:26:36;8.18;;;3.40;;
61869;SDS011;47810;42.264;23.826;2022-07-17T06:29:02;9.23;;;3.58;;
61869;SDS011;47810;42.264;23.826;2022-07-17T06:35:23;5.20;;;3.50;;
61869;SDS011;47810;42.264;23.826;2022-07-17T06:38:04;5.72;;;3.40;;
61869;SDS011;47810;42.264;23.826;2022-07-17T06:50:57;7.75;;;3.35;;
61869;SDS011;47810;42.264;23.826;2022-07-17T06:53:48;4.32;;;3.03;;
61869;SDS011;47810;42.264;23.826;2022-07-17T07:03:56;5.65;;;3.33;;
61869;SDS011;47810;42.264;23.826;2022-07-17T07:06:33;5.07;;;3.08;;
61869;SDS011;47810;42.264;23.826;2022-07-17T07:15:03;3.40;;;2.70;;
61869;SDS011;47810;42.264;23.826;2022-07-17T07:17:38;6.63;;;2.90;;
61869;SDS011;47810;42.264;23.826;2022-07-17T07:23:59;7.90;;;3.10;;
61869;SDS011;47810;42.264;23.826;2022-07-17T07:30:27;5.78;;;3.08;;
61869;SDS011;47810;42.264;23.826;2022-07-17T07:36:22;4.38;;;3.20;;
61869;SDS011;47810;42.264;23.826;2022-07-17T07:39:04;4.13;;;2.95;;
61869;SDS011;47810;42.264;23.826;2022-07-17T07:42:20;8.73;;;3.35;;
61869;SDS011;47810;42.264;23.826;2022-07-17T07:44:46;7.25;;;3.33;;
61869;SDS011;47810;42.264;23.826;2022-07-17T07:49:46;9.45;;;3.25;;
61869;SDS011;47810;42.264;23.826;2022-07-17T07:52:27;5.50;;;3.10;;
61869;SDS011;47810;42.264;23.826;2022-07-17T07:55:08;4.22;;;3.00;;
61869;SDS011;47810;42.264;23.826;2022-07-17T07:58:00;5.97;;;3.20;;
61869;SDS011;47810;42.264;23.826;2022-07-17T08:05:32;17.23;;;3.97;;
61869;SDS011;47810;42.264;23.826;2022-07-17T08:08:09;11.02;;;3.45;;
61869;SDS011;47810;42.264;23.826;2022-07-17T08:10:50;10.82;;;3.50;;
61869;SDS011;47810;42.264;23.826;2022-07-17T08:13:27;6.70;;;3.10;;
61869;SDS011;47810;42.264;23.826;2022-07-17T08:15:53;4.70;;;3.20;;
61869;SDS011;47810;42.264;23.826;2022-07-17T08:22:13;5.80;;;3.20;;
61869;SDS011;47810;42.264;23.826;2022-07-17T08:24:51;5.82;;;3.15;;
61869;SDS011;47810;42.264;23.826;2022-07-17T08:27:17;5.70;;;3.10;;
61869;SDS011;47810;42.264;23.826;2022-07-17T08:29:46;6.30;;;3.15;;
61869;SDS011;47810;42.264;23.826;2022-07-17T08:32:12;6.78;;;3.40;;
61869;SDS011;47810;42.264;23.826;2022-07-17T08:34:38;6.45;;;2.90;;
61869;SDS011;47810;42.264;23.826;2022-07-17T08:37:04;5.32;;;2.80;;
61869;SDS011;47810;42.264;23.826;2022-07-17T08:39:30;5.85;;;2.90;;
61869;SDS011;47810;42.264;23.826;2022-07-17T08:41:56;5.72;;;2.97;;
61869;SDS011;47810;42.264;23.826;2022-07-17T08:44:23;6.93;;;2.72;;
61869;SDS011;47810;42.264;23.826;2022-07-17T08:46:49;5.85;;;2.60;;
61869;SDS011;47810;42.264;23.826;2022-07-17T08:49:18;4.70;;;2.83;;
61869;SDS011;47810;42.264;23.826;2022-07-17T08:51:48;3.97;;;2.47;;
61869;SDS011;47810;42.264;23.826;2022-07-17T08:54:32;3.90;;;3.00;;
61869;SDS011;47810;42.264;23.826;2022-07-17T08:56:57;3.80;;;2.75;;
61869;SDS011;47810;42.264;23.826;2022-07-17T08:59:26;7.45;;;3.10;;
61869;SDS011;47810;42.264;23.826;2022-07-17T09:01:52;4.50;;;2.70;;
61869;SDS011;47810;42.264;23.826;2022-07-17T09:04:19;5.80;;;2.72;;
61869;SDS011;47810;42.264;23.826;2022-07-17T09:06:46;5.97;;;2.90;;
61869;SDS011;47810;42.264;23.826;2022-07-17T09:09:24;5.38;;;3.00;;
61869;SDS011;47810;42.264;23.826;2022-07-17T09:11:51;4.95;;;2.70;;
61869;SDS011;47810;42.264;23.826;2022-07-17T09:14:21;6.85;;;2.90;;
61869;SDS011;47810;42.264;23.826;2022-07-17T09:16:52;6.43;;;3.00;;
61869;SDS011;47810;42.264;23.826;2022-07-17T09:22:08;4.50;;;2.80;;
61869;SDS011;47810;42.264;23.826;2022-07-17T09:24:39;5.47;;;2.85;;
61869;SDS011;47810;42.264;23.826;2022-07-17T09:27:09;9.05;;;4.25;;
61869;SDS011;47810;42.264;23.826;2022-07-17T09:29:48;5.38;;;3.20;;
61869;SDS011;47810;42.264;23.826;2022-07-17T09:32:27;5.47;;;3.05;;
61869;SDS011;47810;42.264;23.826;2022-07-17T09:34:58;4.13;;;3.00;;
61869;SDS011;47810;42.264;23.826;2022-07-17T09:37:26;6.37;;;3.03;;
61869;SDS011;47810;42.264;23.826;2022-07-17T09:39:56;5.72;;;3.08;;
61869;SDS011;47810;42.264;23.826;2022-07-17T09:45:03;7.35;;;3.42;;
61869;SDS011;47810;42.264;23.826;2022-07-17T09:47:33;5.75;;;3.55;;
61869;SDS011;47810;42.264;23.826;2022-07-17T09:50:00;4.88;;;3.17;;
61869;SDS011;47810;42.264;23.826;2022-07-17T09:52:32;5.70;;;3.10;;
61869;SDS011;47810;42.264;23.826;2022-07-17T09:54:59;5.72;;;3.10;;
61869;SDS011;47810;42.264;23.826;2022-07-17T09:57:29;5.78;;;3.17;;
61869;SDS011;47810;42.264;23.826;2022-07-17T10:00:03;6.35;;;3.20;;
61869;SDS011;47810;42.264;23.826;2022-07-17T10:02:33;4.70;;;2.97;;
61869;SDS011;47810;42.264;23.826;2022-07-17T10:04:59;4.65;;;3.33;;
61869;SDS011;47810;42.264;23.826;2022-07-17T10:07:25;6.07;;;3.28;;
61869;SDS011;47810;42.264;23.826;2022-07-17T10:09:52;4.07;;;3.08;;
61869;SDS011;47810;42.264;23.826;2022-07-17T10:12:18;6.78;;;3.03;;
61869;SDS011;47810;42.264;23.826;2022-07-17T10:14:46;5.03;;;2.97;;
61869;SDS011;47810;42.264;23.826;2022-07-17T10:17:14;4.93;;;3.03;;
61869;SDS011;47810;42.264;23.826;2022-07-17T10:19:50;6.20;;;3.28;;
61869;SDS011;47810;42.264;23.826;2022-07-17T10:22:18;4.68;;;3.30;;
61869;SDS011;47810;42.264;23.826;2022-07-17T10:24:45;8.73;;;3.15;;
61869;SDS011;47810;42.264;23.826;2022-07-17T10:27:26;6.43;;;3.08;;
61869;SDS011;47810;42.264;23.826;2022-07-17T10:30:00;14.55;;;3.50;;
61869;SDS011;47810;42.264;23.826;2022-07-17T10:32:30;5.40;;;2.92;;
61869;SDS011;47810;42.264;23.826;2022-07-17T10:34:58;5.22;;;3.15;;
61869;SDS011;47810;42.264;23.826;2022-07-17T10:37:27;9.10;;;3.03;;
61869;SDS011;47810;42.264;23.826;2022-07-17T10:39:57;126.68;;;6.75;;
61869;SDS011;47810;42.264;23.826;2022-07-17T10:47:55;5.93;;;2.90;;
61869;SDS011;47810;42.264;23.826;2022-07-17T10:50:23;5.75;;;3.13;;
61869;SDS011;47810;42.264;23.826;2022-07-17T10:53:00;6.45;;;3.15;;
61869;SDS011;47810;42.264;23.826;2022-07-17T10:55:32;4.55;;;3.42;;
61869;SDS011;47810;42.264;23.826;2022-07-17T10:57:59;4.55;;;3.05;;
61869;SDS011;47810;42.264;23.826;2022-07-17T11:00:25;6.78;;;3.20;;
61869;SDS011;47810;42.264;23.826;2022-07-17T11:02:54;6.00;;;3.55;;
61869;SDS011;47810;42.264;23.826;2022-07-17T11:05:20;7.25;;;2.97;;
61869;SDS011;47810;42.264;23.826;2022-07-17T11:07:51;6.35;;;3.33;;
61869;SDS011;47810;42.264;23.826;2022-07-17T11:12:43;5.22;;;3.30;;
61869;SDS011;47810;42.264;23.826;2022-07-17T11:15:09;5.65;;;3.55;;
61869;SDS011;47810;42.264;23.826;2022-07-17T11:17:35;7.80;;;3.22;;
61869;SDS011;47810;42.264;23.826;2022-07-17T11:20:02;6.35;;;3.55;;
61869;SDS011;47810;42.264;23.826;2022-07-17T11:22:29;3.95;;;2.97;;
61869;SDS011;47810;42.264;23.826;2022-07-17T11:24:55;4.97;;;3.35;;
61869;SDS011;47810;42.264;23.826;2022-07-17T11:27:24;5.55;;;3.60;;
61869;SDS011;47810;42.264;23.826;2022-07-17T11:29:52;17.48;;;4.05;;
61869;SDS011;47810;42.264;23.826;2022-07-17T11:32:19;6.82;;;3.47;;
61869;SDS011;47810;42.264;23.826;2022-07-17T11:34:45;15.65;;;3.40;;
61869;SDS011;47810;42.264;23.826;2022-07-17T11:37:11;7.45;;;3.42;;
61869;SDS011;47810;42.264;23.826;2022-07-17T11:42:29;5.80;;;3.28;;
61869;SDS011;47810;42.264;23.826;2022-07-17T11:44:55;18.73;;;3.65;;
61869;SDS011;47810;42.264;23.826;2022-07-17T11:47:22;28.65;;;3.90;;
61869;SDS011;47810;42.264;23.826;2022-07-17T11:49:52;10.13;;;3.50;;
61869;SDS011;47810;42.264;23.826;2022-07-17T11:53:09;5.55;;;3.80;;
61869;SDS011;47810;42.264;23.826;2022-07-17T11:55:47;5.10;;;3.88;;
61869;SDS011;47810;42.264;23.826;2022-07-17T11:58:12;4.80;;;3.20;;
61869;SDS011;47810;42.264;23.826;2022-07-17T12:00:38;8.15;;;3.55;;
61869;SDS011;47810;42.264;23.826;2022-07-17T12:03:06;6.15;;;3.10;;
61869;SDS011;47810;42.264;23.826;2022-07-17T12:05:32;6.22;;;3.55;;
61869;SDS011;47810;42.264;23.826;2022-07-17T12:08:00;25.63;;;4.40;;
61869;SDS011;47810;42.264;23.826;2022-07-17T12:10:27;6.10;;;3.40;;
61869;SDS011;47810;42.264;23.826;2022-07-17T12:15:21;6.68;;;3.20;;
61869;SDS011;47810;42.264;23.826;2022-07-17T12:17:59;5.68;;;3.55;;
61869;SDS011;47810;42.264;23.826;2022-07-17T12:20:24;8.05;;;3.28;;
61869;SDS011;47810;42.264;23.826;2022-07-17T12:22:50;4.32;;;3.33;;
61869;SDS011;47810;42.264;23.826;2022-07-17T12:25:24;6.72;;;3.47;;
61869;SDS011;47810;42.264;23.826;2022-07-17T12:27:50;10.35;;;3.50;;
61869;SDS011;47810;42.264;23.826;2022-07-17T12:30:17;8.50;;;3.20;;
61869;SDS011;47810;42.264;23.826;2022-07-17T12:32:44;5.43;;;3.60;;
61869;SDS011;47810;42.264;23.826;2022-07-17T12:35:11;6.93;;;3.58;;
61869;SDS011;47810;42.264;23.826;2022-07-17T12:37:37;4.93;;;3.38;;
61869;SDS011;47810;42.264;23.826;2022-07-17T12:40:02;5.53;;;3.50;;
61869;SDS011;47810;42.264;23.826;2022-07-17T12:42:29;5.30;;;3.40;;
61869;SDS011;47810;42.264;23.826;2022-07-17T12:44:55;4.95;;;3.35;;
61869;SDS011;47810;42.264;23.826;2022-07-17T12:47:21;46.95;;;4.88;;
61869;SDS011;47810;42.264;23.826;2022-07-17T12:49:46;6.57;;;3.70;;
61869;SDS011;47810;42.264;23.826;2022-07-17T12:52:12;9.18;;;3.83;;
61869;SDS011;47810;42.264;23.826;2022-07-17T12:54:39;9.63;;;3.38;;
61869;SDS011;47810;42.264;23.826;2022-07-17T12:57:05;6.95;;;3.60;;
61869;SDS011;47810;42.264;23.826;2022-07-17T12:59:32;22.80;;;4.30;;
61869;SDS011;47810;42.264;23.826;2022-07-17T13:01:58;10.05;;;3.45;;
61869;SDS011;47810;42.264;23.826;2022-07-17T13:04:24;10.85;;;3.67;;
61869;SDS011;47810;42.264;23.826;2022-07-17T13:06:51;5.25;;;3.70;;
61869;SDS011;47810;42.264;23.826;2022-07-17T13:09:19;8.48;;;3.60;;
61869;SDS011;47810;42.264;23.826;2022-07-17T13:11:45;7.22;;;3.58;;
61869;SDS011;47810;42.264;23.826;2022-07-17T13:14:14;9.13;;;3.20;;
61869;SDS011;47810;42.264;23.826;2022-07-17T13:16:41;6.70;;;3.53;;
61869;SDS011;47810;42.264;23.826;2022-07-17T13:19:07;78.43;;;6.03;;
61869;SDS011;47810;42.264;23.826;2022-07-17T13:21:33;53.33;;;5.13;;
61869;SDS011;47810;42.264;23.826;2022-07-17T13:24:00;8.48;;;3.60;;
61869;SDS011;47810;42.264;23.826;2022-07-17T13:26:27;4.88;;;3.67;;
61869;SDS011;47810;42.264;23.826;2022-07-17T13:28:52;6.15;;;3.45;;
61869;SDS011;47810;42.264;23.826;2022-07-17T13:31:19;49.38;;;5.18;;
61869;SDS011;47810;42.264;23.826;2022-07-17T13:33:45;6.05;;;3.22;;
61869;SDS011;47810;42.264;23.826;2022-07-17T13:36:11;8.45;;;3.63;;
61869;SDS011;47810;42.264;23.826;2022-07-17T13:38:37;23.00;;;3.95;;
61869;SDS011;47810;42.264;23.826;2022-07-17T13:41:03;8.40;;;3.55;;
61869;SDS011;47810;42.264;23.826;2022-07-17T13:43:29;8.95;;;3.40;;
61869;SDS011;47810;42.264;23.826;2022-07-17T13:45:54;4.75;;;3.50;;
61869;SDS011;47810;42.264;23.826;2022-07-17T13:48:20;6.30;;;3.88;;
61869;SDS011;47810;42.264;23.826;2022-07-17T13:50:46;5.80;;;3.78;;
61869;SDS011;47810;42.264;23.826;2022-07-17T13:53:12;4.85;;;3.20;;
61869;SDS011;47810;42.264;23.826;2022-07-17T13:55:38;194.75;;;10.20;;
61869;SDS011;47810;42.264;23.826;2022-07-17T13:58:04;49.88;;;4.95;;
61869;SDS011;47810;42.264;23.826;2022-07-17T14:00:30;5.43;;;3.47;;
61869;SDS011;47810;42.264;23.826;2022-07-17T14:02:56;7.88;;;3.40;;
61869;SDS011;47810;42.264;23.826;2022-07-17T14:05:22;7.55;;;3.63;;
61869;SDS011;47810;42.264;23.826;2022-07-17T14:07:49;22.75;;;4.10;;
61869;SDS011;47810;42.264;23.826;2022-07-17T14:10:15;36.03;;;5.00;;
61869;SDS011;47810;42.264;23.826;2022-07-17T14:12:40;5.00;;;3.58;;
61869;SDS011;47810;42.264;23.826;2022-07-17T14:15:06;5.68;;;3.20;;
61869;SDS011;47810;42.264;23.826;2022-07-17T14:17:32;6.28;;;3.20;;
61869;SDS011;47810;42.264;23.826;2022-07-17T14:19:58;16.70;;;3.58;;
61869;SDS011;47810;42.264;23.826;2022-07-17T14:22:24;7.57;;;3.53;;
61869;SDS011;47810;42.264;23.826;2022-07-17T14:24:50;10.43;;;3.40;;
61869;SDS011;47810;42.264;23.826;2022-07-17T14:27:15;4.50;;;3.22;;
61869;SDS011;47810;42.264;23.826;2022-07-17T14:29:41;23.33;;;4.00;;
61869;SDS011;47810;42.264;23.826;2022-07-17T14:32:08;8.27;;;3.53;;
61869;SDS011;47810;42.264;23.826;2022-07-17T14:34:33;25.17;;;4.10;;
61869;SDS011;47810;42.264;23.826;2022-07-17T14:36:59;5.97;;;3.63;;
61869;SDS011;47810;42.264;23.826;2022-07-17T14:39:28;10.18;;;3.13;;
61869;SDS011;47810;42.264;23.826;2022-07-17T14:41:54;27.92;;;3.83;;
61869;SDS011;47810;42.264;23.826;2022-07-17T14:44:20;7.10;;;3.50;;
61869;SDS011;47810;42.264;23.826;2022-07-17T14:46:46;7.85;;;4.13;;
61869;SDS011;47810;42.264;23.826;2022-07-17T14:49:12;4.47;;;3.47;;
61869;SDS011;47810;42.264;23.826;2022-07-17T14:51:37;7.20;;;3.90;;
61869;SDS011;47810;42.264;23.826;2022-07-17T14:54:03;8.25;;;3.80;;
61869;SDS011;47810;42.264;23.826;2022-07-17T14:56:29;8.73;;;3.63;;
61869;SDS011;47810;42.264;23.826;2022-07-17T14:58:55;6.28;;;3.80;;
61869;SDS011;47810;42.264;23.826;2022-07-17T15:01:20;5.45;;;3.35;;
61869;SDS011;47810;42.264;23.826;2022-07-17T15:03:46;6.45;;;3.25;;
61869;SDS011;47810;42.264;23.826;2022-07-17T15:06:12;6.75;;;3.40;;
61869;SDS011;47810;42.264;23.826;2022-07-17T15:08:38;5.90;;;3.42;;
61869;SDS011;47810;42.264;23.826;2022-07-17T15:11:04;7.82;;;4.25;;
61869;SDS011;47810;42.264;23.826;2022-07-17T15:13:30;6.70;;;3.30;;
61869;SDS011;47810;42.264;23.826;2022-07-17T15:15:56;4.90;;;3.35;;
61869;SDS011;47810;42.264;23.826;2022-07-17T15:18:22;5.30;;;3.70;;
61869;SDS011;47810;42.264;23.826;2022-07-17T15:20:48;14.82;;;4.10;;
61869;SDS011;47810;42.264;23.826;2022-07-17T15:23:13;5.28;;;3.42;;
61869;SDS011;47810;42.264;23.826;2022-07-17T15:25:39;8.98;;;3.72;;
61869;SDS011;47810;42.264;23.826;2022-07-17T15:28:05;8.48;;;3.70;;
61869;SDS011;47810;42.264;23.826;2022-07-17T15:30:31;7.65;;;3.85;;
61869;SDS011;47810;42.264;23.826;2022-07-17T15:32:57;6.10;;;3.88;;
61869;SDS011;47810;42.264;23.826;2022-07-17T15:35:23;12.57;;;4.28;;
61869;SDS011;47810;42.264;23.826;2022-07-17T15:37:52;9.32;;;3.60;;
61869;SDS011;47810;42.264;23.826;2022-07-17T15:40:19;16.60;;;4.15;;
61869;SDS011;47810;42.264;23.826;2022-07-17T15:42:45;5.68;;;3.30;;
61869;SDS011;47810;42.264;23.826;2022-07-17T15:45:11;6.57;;;3.40;;
61869;SDS011;47810;42.264;23.826;2022-07-17T15:47:37;98.60;;;6.55;;
61869;SDS011;47810;42.264;23.826;2022-07-17T15:50:03;51.80;;;5.50;;
61869;SDS011;47810;42.264;23.826;2022-07-17T15:52:29;8.75;;;3.53;;
61869;SDS011;47810;42.264;23.826;2022-07-17T15:54:55;7.78;;;3.83;;
61869;SDS011;47810;42.264;23.826;2022-07-17T15:57:21;5.70;;;3.15;;
61869;SDS011;47810;42.264;23.826;2022-07-17T15:59:47;21.15;;;3.88;;
61869;SDS011;47810;42.264;23.826;2022-07-17T16:02:12;5.43;;;3.58;;
61869;SDS011;47810;42.264;23.826;2022-07-17T16:04:39;6.63;;;3.80;;
61869;SDS011;47810;42.264;23.826;2022-07-17T16:07:05;8.27;;;3.65;;
61869;SDS011;47810;42.264;23.826;2022-07-17T16:09:31;12.85;;;4.00;;
61869;SDS011;47810;42.264;23.826;2022-07-17T16:11:56;7.97;;;3.88;;
61869;SDS011;47810;42.264;23.826;2022-07-17T16:14:22;6.38;;;3.63;;
61869;SDS011;47810;42.264;23.826;2022-07-17T16:16:48;6.63;;;4.13;;
61869;SDS011;47810;42.264;23.826;2022-07-17T16:19:14;7.32;;;4.63;;
61869;SDS011;47810;42.264;23.826;2022-07-17T16:21:39;6.57;;;4.03;;
61869;SDS011;47810;42.264;23.826;2022-07-17T16:24:07;6.72;;;4.00;;
61869;SDS011;47810;42.264;23.826;2022-07-17T16:26:32;7.78;;;4.30;;
61869;SDS011;47810;42.264;23.826;2022-07-17T16:28:58;9.50;;;4.97;;
61869;SDS011;47810;42.264;23.826;2022-07-17T16:31:24;9.18;;;4.50;;
61869;SDS011;47810;42.264;23.826;2022-07-17T16:33:50;12.10;;;4.60;;
61869;SDS011;47810;42.264;23.826;2022-07-17T16:36:15;8.32;;;4.10;;
61869;SDS011;47810;42.264;23.826;2022-07-17T16:38:41;6.25;;;3.95;;
61869;SDS011;47810;42.264;23.826;2022-07-17T16:41:09;23.38;;;10.88;;
61869;SDS011;47810;42.264;23.826;2022-07-17T16:43:35;27.13;;;13.07;;
61869;SDS011;47810;42.264;23.826;2022-07-17T16:46:02;27.23;;;12.70;;
61869;SDS011;47810;42.264;23.826;2022-07-17T16:48:29;17.23;;;6.07;;